createdAt,value
2018-05-31T00:02:00.949Z,65.08
2018-05-31T00:04:28.487Z,64.70
2018-05-31T00:06:56.105Z,66.76
2018-05-31T00:09:23.653Z,65.25
2018-05-31T00:11:51.370Z,65.92
2018-05-31T00:14:18.908Z,65.32
2018-05-31T00:16:46.444Z,65.87
2018-05-31T00:19:14.020Z,65.27
2018-05-31T00:21:41.569Z,65.37
2018-05-31T00:24:09.504Z,64.90
2018-05-31T00:26:37.024Z,64.76
2018-05-31T00:29:04.574Z,64.48
2018-05-31T00:31:32.141Z,64.27
2018-05-31T00:33:59.681Z,64.77
2018-05-31T00:36:27.381Z,63.86
2018-05-31T00:38:54.924Z,63.91
2018-05-31T00:41:22.479Z,63.73
2018-05-31T00:43:50.048Z,64.11
2018-05-31T00:46:17.580Z,63.26
2018-05-31T00:48:45.304Z,62.66
2018-05-31T00:51:12.824Z,62.75
2018-05-31T00:53:40.364Z,62.23
2018-05-31T00:56:16.951Z,62.30
2018-05-31T00:58:44.490Z,62.09
2018-05-31T01:01:13.007Z,61.92
2018-05-31T01:03:40.541Z,61.95
2018-05-31T01:06:08.097Z,61.76
2018-05-31T01:08:35.664Z,61.50
2018-05-31T01:11:03.204Z,61.65
2018-05-31T01:13:30.933Z,61.83
2018-05-31T01:15:58.484Z,62.00
2018-05-31T01:18:26.029Z,62.27
2018-05-31T01:20:53.597Z,62.64
2018-05-31T01:23:21.906Z,62.75
2018-05-31T01:25:49.660Z,63.23
2018-05-31T01:28:17.188Z,63.98
2018-05-31T01:30:44.737Z,63.44
2018-05-31T01:33:12.292Z,63.95
2018-05-31T01:35:39.826Z,63.36
2018-05-31T01:41:10.480Z,63.69
2018-05-31T01:43:39.543Z,64.50
2018-05-31T01:46:07.725Z,64.78
2018-05-31T01:48:35.267Z,65.14
2018-05-31T01:51:02.812Z,66.06
2018-05-31T01:53:30.381Z,66.56
2018-05-31T01:55:57.952Z,66.81
2018-05-31T01:58:25.508Z,66.04
2018-05-31T02:00:53.039Z,66.72
2018-05-31T02:03:20.601Z,67.51
2018-05-31T02:05:48.150Z,68.35
2018-05-31T02:08:15.725Z,67.75
2018-05-31T02:10:43.332Z,66.54
2018-05-31T02:13:10.864Z,67.59
2018-05-31T02:15:38.437Z,68.16
2018-05-31T02:18:05.981Z,67.21
2018-05-31T02:20:33.557Z,66.65
2018-05-31T02:23:01.084Z,67.03
2018-05-31T02:25:28.627Z,67.21
2018-05-31T02:27:56.193Z,67.62
2018-05-31T02:30:23.725Z,67.77
2018-05-31T02:32:51.309Z,68.27
2018-05-31T02:35:18.856Z,67.80
2018-05-31T02:37:46.395Z,67.90
2018-05-31T02:40:13.964Z,67.33
2018-05-31T02:42:41.503Z,67.69
2018-05-31T02:45:09.077Z,67.78
2018-05-31T02:47:36.611Z,67.65
2018-05-31T02:50:04.155Z,67.26
2018-05-31T02:52:31.750Z,67.02
2018-05-31T02:54:59.477Z,67.15
2018-05-31T02:57:27.041Z,66.69
2018-05-31T02:59:54.581Z,66.13
2018-05-31T03:02:22.125Z,65.75
2018-05-31T03:04:49.689Z,65.57
2018-05-31T03:07:17.250Z,65.60
2018-05-31T03:09:44.929Z,66.12
2018-05-31T03:12:12.478Z,65.78
2018-05-31T03:14:40.012Z,65.58
2018-05-31T03:17:07.573Z,65.65
2018-05-31T03:19:35.106Z,65.99
2018-05-31T03:22:02.840Z,65.97
2018-05-31T03:24:30.372Z,66.35
2018-05-31T03:26:57.915Z,66.06
2018-05-31T03:29:25.473Z,66.52
2018-05-31T03:31:53.013Z,66.71
2018-05-31T03:34:20.597Z,66.97
2018-05-31T03:36:48.127Z,67.61
2018-05-31T03:39:15.661Z,66.95
2018-05-31T03:41:43.246Z,66.76
2018-05-31T03:44:10.789Z,67.27
2018-05-31T03:46:38.836Z,67.20
2018-05-31T03:49:06.365Z,66.96
2018-05-31T03:51:33.909Z,66.86
2018-05-31T03:54:01.474Z,66.89
2018-05-31T03:56:29.024Z,67.18
2018-05-31T03:58:56.841Z,66.91
2018-05-31T04:01:25.484Z,66.94
2018-05-31T04:03:52.988Z,67.47
2018-05-31T04:06:20.585Z,66.92
2018-05-31T04:08:48.125Z,66.78
2018-05-31T04:11:15.699Z,66.33
2018-05-31T04:13:43.236Z,66.12
2018-05-31T04:16:10.772Z,65.65
2018-05-31T04:18:38.335Z,65.23
2018-05-31T04:21:05.883Z,65.15
2018-05-31T04:23:34.200Z,64.98
2018-05-31T04:26:01.731Z,65.08
2018-05-31T04:28:29.308Z,64.94
2018-05-31T04:30:56.942Z,64.53
2018-05-31T04:33:24.469Z,64.33
2018-05-31T04:35:52.392Z,64.84
2018-05-31T04:38:19.934Z,65.74
2018-05-31T04:40:47.471Z,65.67
2018-05-31T04:43:15.033Z,65.31
2018-05-31T04:45:42.568Z,64.74
2018-05-31T04:48:10.276Z,64.82
2018-05-31T04:50:37.808Z,64.41
2018-05-31T04:53:05.332Z,64.38
2018-05-31T04:55:32.893Z,64.49
2018-05-31T04:58:00.434Z,64.21
2018-05-31T05:00:28.176Z,64.36
2018-05-31T05:02:55.721Z,63.88
2018-05-31T05:05:23.260Z,63.73
2018-05-31T05:07:50.825Z,63.64
2018-05-31T05:10:18.368Z,63.32
2018-05-31T05:12:46.386Z,64.67
2018-05-31T05:15:14.470Z,63.30
2018-05-31T05:17:42.011Z,63.11
2018-05-31T05:20:09.572Z,62.54
2018-05-31T05:22:37.159Z,61.76
2018-05-31T05:25:04.761Z,61.07
2018-05-31T05:27:32.292Z,60.98
2018-05-31T05:29:59.828Z,61.54
2018-05-31T05:32:27.433Z,62.66
2018-05-31T05:34:54.932Z,62.55
2018-05-31T05:37:22.896Z,62.86
2018-05-31T05:39:50.427Z,61.70
2018-05-31T05:42:17.972Z,60.71
2018-05-31T05:44:45.546Z,61.32
2018-05-31T05:47:13.155Z,59.54
2018-05-31T05:49:40.896Z,59.75
2018-05-31T05:52:08.432Z,60.42
2018-05-31T05:54:35.963Z,60.05
2018-05-31T05:57:03.520Z,60.33
2018-05-31T05:59:31.053Z,60.29
2018-05-31T06:01:59.943Z,59.92
2018-05-31T06:04:27.477Z,59.29
2018-05-31T06:06:55.008Z,58.73
2018-05-31T06:09:22.585Z,58.44
2018-05-31T06:11:50.121Z,57.99
2018-05-31T06:14:17.685Z,57.51
2018-05-31T06:16:45.252Z,57.65
2018-05-31T06:19:12.978Z,56.58
2018-05-31T06:21:40.546Z,56.26
2018-05-31T06:24:08.101Z,56.60
2018-05-31T06:26:35.673Z,56.87
2018-05-31T06:29:03.209Z,55.71
2018-05-31T06:31:31.269Z,56.42
2018-05-31T06:33:58.820Z,54.88
2018-05-31T06:36:27.296Z,54.03
2018-05-31T06:38:54.856Z,55.15
2018-05-31T06:41:22.378Z,52.97
2018-05-31T06:43:51.041Z,51.94
2018-05-31T06:46:18.608Z,51.68
2018-05-31T06:48:49.117Z,49.79
2018-05-31T06:51:17.165Z,48.94
2018-05-31T06:53:44.996Z,48.42
2018-05-31T06:56:12.513Z,46.89
2018-05-31T06:58:40.157Z,44.91
2018-05-31T07:01:08.230Z,44.71
2018-05-31T07:03:35.918Z,42.51
2018-05-31T07:06:03.436Z,41.99
2018-05-31T07:08:31.070Z,43.12
2018-05-31T07:10:58.615Z,42.35
2018-05-31T07:13:26.142Z,43.04
2018-05-31T07:15:54.136Z,43.61
2018-05-31T07:18:21.639Z,42.68
2018-05-31T07:20:49.840Z,42.99
2018-05-31T07:23:17.380Z,43.35
2018-05-31T07:25:44.896Z,40.79
2018-05-31T07:28:12.452Z,39.96
2018-05-31T07:30:39.965Z,38.53
2018-05-31T07:33:07.484Z,38.22
2018-05-31T07:35:35.026Z,38.50
2018-05-31T07:38:02.537Z,38.34
2018-05-31T07:40:30.281Z,37.04
2018-05-31T07:42:57.797Z,37.42
2018-05-31T07:45:25.325Z,37.38
2018-05-31T07:47:52.872Z,35.20
2018-05-31T07:50:20.385Z,36.66
2018-05-31T07:52:48.186Z,37.18
2018-05-31T07:55:15.704Z,35.38
2018-05-31T07:57:43.224Z,36.01
2018-05-31T08:00:10.774Z,35.76
2018-05-31T08:02:38.419Z,36.98
2018-05-31T08:05:05.992Z,36.99
2018-05-31T08:07:33.517Z,35.89
2018-05-31T08:10:01.029Z,35.96
2018-05-31T08:12:28.568Z,35.91
2018-05-31T08:14:56.384Z,34.77
2018-05-31T08:17:23.929Z,35.83
2018-05-31T08:19:51.844Z,33.37
2018-05-31T08:22:19.529Z,35.41
2018-05-31T08:24:47.054Z,34.85
2018-05-31T08:27:14.609Z,34.51
2018-05-31T08:29:42.128Z,32.79
2018-05-31T08:32:10.126Z,33.14
2018-05-31T08:34:37.665Z,33.68
2018-05-31T08:37:05.184Z,32.59
2018-05-31T08:39:32.744Z,31.19
2018-05-31T08:42:00.288Z,30.53
2018-05-31T08:44:27.956Z,29.03
2018-05-31T08:46:55.488Z,28.69
2018-05-31T08:49:23.373Z,29.17
2018-05-31T08:51:51.041Z,30.89
2018-05-31T08:54:18.561Z,29.43
2018-05-31T08:56:46.572Z,28.12
2018-05-31T08:59:14.089Z,26.04
2018-05-31T09:01:41.632Z,27.89
2018-05-31T09:04:09.186Z,28.59
2018-05-31T09:06:36.758Z,26.92
2018-05-31T09:09:04.677Z,27.89
2018-05-31T09:11:32.202Z,25.74
2018-05-31T09:13:59.817Z,22.41
2018-05-31T09:16:27.402Z,24.35
2018-05-31T09:18:55.103Z,22.71
2018-05-31T09:21:22.671Z,23.85
2018-05-31T09:23:50.194Z,21.45
2018-05-31T09:26:17.819Z,21.69
2018-05-31T09:28:45.376Z,24.13
2018-05-31T09:31:12.949Z,23.46
2018-05-31T09:33:40.781Z,21.47
2018-05-31T09:36:08.309Z,22.95
2018-05-31T09:38:35.840Z,22.22
2018-05-31T09:41:03.491Z,21.66
2018-05-31T09:43:31.022Z,18.87
2018-05-31T09:45:58.686Z,18.92
2018-05-31T09:48:26.265Z,18.18
2018-05-31T09:50:53.857Z,17.48
2018-05-31T09:53:21.401Z,17.03
2018-05-31T09:55:48.914Z,18.38
2018-05-31T09:58:16.870Z,18.01
2018-05-31T10:00:44.349Z,19.80
2018-05-31T10:03:11.873Z,17.65
2018-05-31T10:05:39.425Z,17.55
2018-05-31T10:08:07.144Z,16.15
2018-05-31T10:10:34.747Z,15.77
2018-05-31T10:13:02.264Z,16.86
2018-05-31T10:15:29.798Z,16.63
2018-05-31T10:17:57.366Z,16.38
2018-05-31T10:20:24.896Z,17.41
2018-05-31T10:22:52.697Z,17.42
2018-05-31T10:25:21.289Z,16.76
2018-05-31T10:27:48.829Z,14.75
2018-05-31T10:30:16.373Z,16.55
2018-05-31T10:32:43.889Z,14.34
2018-05-31T10:35:11.618Z,15.45
2018-05-31T10:37:39.291Z,15.15
2018-05-31T10:40:06.828Z,14.16
2018-05-31T10:42:34.397Z,13.40
2018-05-31T10:45:02.175Z,14.88
2018-05-31T10:47:30.698Z,14.61
2018-05-31T10:49:58.253Z,14.49
2018-05-31T10:52:26.027Z,14.48
2018-05-31T10:54:53.593Z,13.10
2018-05-31T10:57:21.116Z,12.64
2018-05-31T10:59:48.862Z,12.98
2018-05-31T11:02:16.569Z,11.65
2018-05-31T11:04:44.122Z,13.45
2018-05-31T11:07:12.272Z,14.66
2018-05-31T11:09:39.845Z,15.79
2018-05-31T11:12:08.278Z,16.12
2018-05-31T11:14:35.875Z,14.46
2018-05-31T11:17:03.619Z,14.84
2018-05-31T11:19:31.177Z,14.64
2018-05-31T11:21:59.052Z,12.88
2018-05-31T11:24:26.628Z,14.30
2018-05-31T11:26:54.334Z,12.75
2018-05-31T11:29:22.035Z,13.72
2018-05-31T11:31:49.796Z,13.29
2018-05-31T11:34:18.495Z,11.96
2018-05-31T11:36:46.656Z,13.43
2018-05-31T11:39:14.524Z,13.50
2018-05-31T11:41:42.335Z,13.77
2018-05-31T11:44:15.188Z,15.02
2018-05-31T11:46:43.072Z,14.69
2018-05-31T11:49:12.347Z,13.69
2018-05-31T11:51:40.164Z,13.12
2018-05-31T11:54:07.969Z,14.39
2018-05-31T11:56:35.841Z,13.76
2018-05-31T11:59:03.803Z,11.86
2018-05-31T12:01:31.776Z,13.12
2018-05-31T12:03:59.405Z,11.55
2018-05-31T12:06:27.203Z,13.71
2018-05-31T12:08:55.067Z,13.54
2018-05-31T12:11:22.680Z,12.29
2018-05-31T12:13:50.348Z,11.60
2018-05-31T12:16:17.902Z,12.75
2018-05-31T12:18:45.703Z,12.47
2018-05-31T12:21:13.341Z,13.36
2018-05-31T12:23:40.874Z,13.03
2018-05-31T12:26:08.763Z,13.22
2018-05-31T12:28:36.301Z,12.22
2018-05-31T12:31:03.840Z,10.73
2018-05-31T12:33:31.683Z,12.08
2018-05-31T12:35:59.446Z,13.99
2018-05-31T12:38:27.278Z,14.03
2018-05-31T12:40:54.874Z,14.79
2018-05-31T12:43:22.745Z,17.56
2018-05-31T12:45:50.271Z,19.08
2018-05-31T12:48:17.839Z,21.04
2018-05-31T12:50:45.609Z,24.51
2018-05-31T12:53:13.188Z,27.83
2018-05-31T12:55:41.545Z,29.80
2018-05-31T12:58:09.065Z,31.24
2018-05-31T13:00:36.591Z,32.46
2018-05-31T13:03:04.137Z,33.01
2018-05-31T13:05:31.773Z,31.33
2018-05-31T13:07:59.664Z,31.78
2018-05-31T13:10:27.229Z,32.35
2018-05-31T13:12:55.091Z,32.84
2018-05-31T13:15:22.854Z,33.87
2018-05-31T13:17:50.894Z,33.97
2018-05-31T13:20:19.429Z,34.13
2018-05-31T13:22:47.069Z,35.71
2018-05-31T13:25:14.866Z,35.89
2018-05-31T13:27:42.565Z,36.29
2018-05-31T13:30:10.361Z,36.62
2018-05-31T13:32:38.330Z,36.06
2018-05-31T13:35:06.199Z,37.32
2018-05-31T13:37:34.165Z,37.74
2018-05-31T13:40:01.937Z,37.76
2018-05-31T13:42:29.758Z,39.47
2018-05-31T13:44:57.457Z,40.92
2018-05-31T13:47:25.222Z,41.90
2018-05-31T13:49:52.864Z,43.36
2018-05-31T13:52:20.428Z,45.29
2018-05-31T13:54:48.070Z,46.31
2018-05-31T13:57:16.279Z,47.15
2018-05-31T13:59:43.865Z,48.99
2018-05-31T14:02:11.448Z,50.61
2018-05-31T14:04:39.371Z,53.30
2018-05-31T14:07:07.137Z,52.86
2018-05-31T14:09:35.389Z,52.92
2018-05-31T14:12:03.279Z,54.14
2018-05-31T14:14:31.037Z,51.83
2018-05-31T14:16:58.905Z,50.97
2018-05-31T14:19:26.566Z,48.14
2018-05-31T14:21:54.661Z,44.54
2018-05-31T14:24:25.328Z,43.25
2018-05-31T14:26:53.150Z,42.40
2018-05-31T14:29:20.796Z,42.71
2018-05-31T14:31:48.767Z,42.19
2018-05-31T14:34:17.280Z,43.36
2018-05-31T14:36:45.069Z,44.17
2018-05-31T14:39:12.984Z,44.07
2018-05-31T14:41:41.360Z,43.59
2018-05-31T14:44:09.226Z,43.35
2018-05-31T14:46:37.290Z,42.78
2018-05-31T14:49:05.166Z,42.35
2018-05-31T14:51:33.176Z,42.46
2018-05-31T14:54:01.106Z,41.43
2018-05-31T14:56:28.969Z,41.58
2018-05-31T14:58:56.938Z,41.73
2018-05-31T15:01:25.417Z,42.45
2018-05-31T15:03:53.286Z,41.98
2018-05-31T15:06:21.152Z,41.26
2018-05-31T15:08:49.018Z,41.21
2018-05-31T15:11:17.703Z,39.95
2018-05-31T15:13:45.268Z,38.81
2018-05-31T15:16:13.035Z,38.70
2018-05-31T15:18:40.926Z,38.13
2018-05-31T15:21:08.589Z,38.76
2018-05-31T15:23:36.437Z,38.27
2018-05-31T15:26:04.163Z,38.61
2018-05-31T15:28:31.746Z,38.56
2018-05-31T15:30:59.511Z,38.56
2018-05-31T15:33:27.268Z,37.78
2018-05-31T15:35:55.038Z,37.04
2018-05-31T15:38:22.804Z,37.03
2018-05-31T15:40:50.699Z,36.93
2018-05-31T15:43:18.541Z,36.45
2018-05-31T15:45:46.406Z,35.18
2018-05-31T15:48:14.781Z,35.55
2018-05-31T15:50:42.333Z,35.17
2018-05-31T15:53:10.207Z,34.47
2018-05-31T15:55:38.080Z,33.95
2018-05-31T15:58:06.722Z,34.04
2018-05-31T16:00:34.691Z,34.46
2018-05-31T16:03:02.800Z,34.71
2018-05-31T16:05:30.665Z,35.10
2018-05-31T16:07:58.594Z,36.08
2018-05-31T16:10:27.526Z,35.45
2018-05-31T16:12:55.601Z,35.40
2018-05-31T16:15:23.563Z,35.69
2018-05-31T16:17:51.535Z,35.84
2018-05-31T16:20:19.402Z,36.47
2018-05-31T16:22:47.164Z,36.10
2018-05-31T16:25:15.117Z,36.66
2018-05-31T16:27:43.103Z,36.79
2018-05-31T16:30:11.277Z,37.05
2018-05-31T16:35:11.926Z,36.80
2018-05-31T16:37:40.278Z,37.08
2018-05-31T16:40:08.282Z,36.69
2018-05-31T16:42:36.140Z,36.34
2018-05-31T16:45:04.892Z,36.58
2018-05-31T16:47:32.797Z,36.82
2018-05-31T16:50:00.959Z,36.63
2018-05-31T16:52:28.847Z,37.14
2018-05-31T16:54:56.389Z,36.81
2018-05-31T16:57:24.160Z,37.24
2018-05-31T16:59:51.821Z,37.97
2018-05-31T17:02:19.856Z,37.89
2018-05-31T17:04:47.446Z,38.51
2018-05-31T17:07:14.977Z,38.37
2018-05-31T17:09:42.982Z,38.08
2018-05-31T17:12:10.556Z,38.26
2018-05-31T17:14:38.273Z,37.98
2018-05-31T17:17:05.863Z,38.82
2018-05-31T17:19:33.574Z,38.47
2018-05-31T17:22:01.271Z,39.02
2018-05-31T17:24:28.789Z,39.06
2018-05-31T17:26:56.613Z,39.37
2018-05-31T17:29:24.148Z,39.41
2018-05-31T17:31:51.789Z,39.42
2018-05-31T17:34:19.349Z,39.65
2018-05-31T17:36:47.029Z,39.81
2018-05-31T17:39:14.921Z,39.88
2018-05-31T17:41:42.442Z,40.10
2018-05-31T17:44:10.135Z,40.46
2018-05-31T17:46:37.804Z,40.56
2018-05-31T17:49:05.471Z,41.16
2018-05-31T17:51:33.056Z,40.89
2018-05-31T17:54:00.581Z,40.91
2018-05-31T17:56:28.092Z,41.11
2018-05-31T17:58:55.780Z,41.45
2018-05-31T18:01:23.431Z,41.43
2018-05-31T18:03:51.044Z,42.41
2018-05-31T18:06:18.570Z,42.46
2018-05-31T18:08:46.750Z,43.16
2018-05-31T18:11:14.353Z,42.79
2018-05-31T18:13:41.882Z,43.23
2018-05-31T18:16:09.449Z,43.78
2018-05-31T18:18:37.025Z,43.79
2018-05-31T18:21:04.554Z,43.90
2018-05-31T18:23:32.115Z,43.84
2018-05-31T18:25:59.655Z,44.05
2018-05-31T18:28:27.644Z,44.74
2018-05-31T18:30:55.613Z,45.41
2018-05-31T18:33:23.587Z,46.37
2018-05-31T18:35:51.512Z,46.42
2018-05-31T18:38:19.184Z,46.45
2018-05-31T18:40:46.790Z,46.53
2018-05-31T18:43:14.348Z,46.12
2018-05-31T18:45:42.918Z,46.19
2018-05-31T18:48:10.778Z,46.08
2018-05-31T18:50:38.446Z,45.92
2018-05-31T18:53:06.207Z,46.68
2018-05-31T18:55:34.036Z,47.02
2018-05-31T18:58:02.653Z,47.26
2018-05-31T19:00:30.470Z,47.17
2018-05-31T19:02:58.289Z,46.96
2018-05-31T19:05:26.149Z,46.97
2018-05-31T19:07:55.051Z,47.07
2018-05-31T19:10:22.913Z,46.91
2018-05-31T19:12:56.411Z,46.33
2018-05-31T19:15:24.224Z,46.45
2018-05-31T19:17:52.147Z,46.37
2018-05-31T19:20:19.909Z,46.76
2018-05-31T19:22:47.569Z,47.00
2018-05-31T19:25:20.357Z,47.41
2018-05-31T19:27:48.118Z,47.48
2018-05-31T19:30:21.423Z,48.26
2018-05-31T19:32:49.646Z,48.12
2018-05-31T19:35:24.004Z,48.26
2018-05-31T19:37:51.876Z,48.63
2018-05-31T19:40:19.839Z,48.43
2018-05-31T19:42:53.442Z,48.38
2018-05-31T19:45:21.511Z,48.58
2018-05-31T19:47:49.452Z,48.51
2018-05-31T19:50:18.171Z,48.53
2018-05-31T19:52:51.662Z,49.06
2018-05-31T19:55:19.531Z,48.92
2018-05-31T19:57:53.183Z,49.18
2018-05-31T20:00:26.435Z,49.17
2018-05-31T20:03:00.748Z,49.18
2018-05-31T20:05:28.712Z,49.35
2018-05-31T20:07:56.579Z,49.33
2018-05-31T20:10:24.455Z,49.86
2018-05-31T20:12:52.320Z,49.40
2018-05-31T20:15:20.139Z,49.85
2018-05-31T20:17:47.938Z,49.46
2018-05-31T20:20:15.605Z,46.84
2018-05-31T20:22:43.576Z,46.36
2018-05-31T20:25:11.338Z,46.35
2018-05-31T20:27:39.513Z,45.83
2018-05-31T20:30:08.144Z,45.45
2018-05-31T20:32:36.001Z,45.84
2018-05-31T20:35:03.932Z,45.68
2018-05-31T20:37:32.515Z,45.46
2018-05-31T20:40:00.586Z,45.13
2018-05-31T20:42:28.630Z,45.34
2018-05-31T20:44:56.630Z,49.49
2018-05-31T20:47:24.491Z,50.53
2018-05-31T20:49:52.257Z,50.46
2018-05-31T20:52:20.600Z,50.75
2018-05-31T20:54:49.322Z,51.25
2018-05-31T20:57:17.161Z,50.98
2018-05-31T20:59:44.850Z,51.11
2018-05-31T21:02:12.617Z,51.38
2018-05-31T21:04:40.790Z,51.24
2018-05-31T21:07:09.269Z,51.29
2018-05-31T21:09:36.836Z,51.86
2018-05-31T21:12:04.810Z,51.85
2018-05-31T21:14:32.668Z,51.66
2018-05-31T21:17:00.733Z,51.31
2018-05-31T21:19:28.444Z,51.33
2018-05-31T21:21:56.263Z,51.70
2018-05-31T21:24:24.232Z,51.35
2018-05-31T21:26:52.098Z,51.13
2018-05-31T21:29:20.212Z,50.79
2018-05-31T21:31:47.907Z,50.94
2018-05-31T21:34:15.597Z,50.85
2018-05-31T21:36:43.347Z,50.67
2018-05-31T21:39:10.893Z,51.14
2018-05-31T21:41:38.573Z,51.54
2018-05-31T21:44:06.117Z,50.93
2018-05-31T21:46:33.701Z,51.10
2018-05-31T21:49:01.670Z,50.63
2018-05-31T21:51:29.387Z,50.45
2018-05-31T21:53:57.248Z,52.26
2018-05-31T21:56:24.793Z,56.35
2018-05-31T21:58:52.336Z,57.12
2018-05-31T22:01:19.943Z,55.03
2018-05-31T22:03:47.643Z,63.37
2018-05-31T22:06:15.384Z,70.48
2018-05-31T22:08:43.151Z,73.96
2018-05-31T22:11:10.672Z,76.05
2018-05-31T22:13:38.594Z,77.91
2018-05-31T22:16:06.158Z,79.04
2018-05-31T22:18:34.228Z,78.90
2018-05-31T22:21:01.823Z,79.58
2018-05-31T22:23:29.446Z,79.11
2018-05-31T22:25:57.015Z,79.12
2018-05-31T22:28:24.597Z,77.49
2018-05-31T22:30:52.804Z,77.22
2018-05-31T22:33:20.622Z,76.67
2018-05-31T22:35:48.135Z,77.25
2018-05-31T22:38:15.821Z,75.74
2018-05-31T22:40:43.341Z,76.35
2018-05-31T22:43:11.359Z,76.32
2018-05-31T22:45:38.877Z,77.07
2018-05-31T22:48:06.528Z,75.71
2018-05-31T22:50:34.082Z,74.95
2018-05-31T22:53:01.624Z,74.85
2018-05-31T22:55:29.445Z,74.19
2018-05-31T22:57:56.973Z,74.47
2018-05-31T23:00:24.492Z,74.62
2018-05-31T23:02:52.065Z,75.40
2018-05-31T23:05:19.569Z,74.94
2018-05-31T23:07:47.113Z,74.85
2018-05-31T23:10:14.640Z,76.66
2018-05-31T23:12:42.157Z,75.99
2018-05-31T23:15:10.244Z,76.30
2018-05-31T23:17:37.770Z,75.62
2018-05-31T23:20:05.324Z,75.87
2018-05-31T23:22:32.843Z,75.38
2018-05-31T23:25:00.357Z,75.76
2018-05-31T23:27:27.896Z,75.67
2018-05-31T23:29:55.424Z,74.69
2018-05-31T23:32:22.982Z,75.48
2018-05-31T23:34:50.507Z,74.53
2018-05-31T23:37:18.032Z,76.00
2018-05-31T23:39:45.583Z,76.57
2018-05-31T23:42:13.101Z,77.13
2018-05-31T23:44:40.685Z,77.48
2018-05-31T23:47:08.213Z,77.30
2018-05-31T23:49:35.774Z,77.81
2018-05-31T23:52:03.313Z,77.83
2018-05-31T23:54:30.838Z,77.39
2018-05-31T23:56:58.532Z,77.04
2018-05-31T23:59:26.057Z,76.75
